KIPJ

Lincolnton-Lincoln County Regional Airport

Lincolnton, North Carolina, USA
METAR KIPJ 191610Z AUTO 00000KT 3/4SM -RA OVC004 07/07 A3000 RMK AO2 T00700070
Observed Flight Rules
Jan-19 @ 16:10 UTC (30 minutes ago) Instrument Flight Rules
Visibility Clouds Conditions
3/4 miles
  • Overcast at 400' AGL
  • Light Rain
Temperatures Readings
Current 7°C / 45°F
Dewpoint 7°C / 45°F
Humidity 100%
Altimeter 30" Hg
Pressure 1015.92 hPa
Elevation 267
METAR KIPJ 191610Z AUTO 00000KT 3/4SM -RA OVC004 07/07 A3000 RMK AO2 T00700070
Observed Flight Rules
Jan-19 @ 16:10 UTC
(30 minutes ago)
LIFR
Clouds
  • Overcast at 400' AGL
Conditions
  • Light Rain
Temperature Dewpoint
7°C / 45°F 7°C / 45°F
Humidity Altimeter Pressure
100% 30" Hg 1015.92 hPa